Time;durP1;ratioP1;P1;durP2;ratioP2;P2;SDS_P1;SDS_P2;PMS_P1;PMS_P2;Temp;Humidity;BMP_temperature;BMP_pressure;BME280_temperature;BME280_humidity;BME280_pressure;Samples;Min_cycle;Max_cycle;Signal;HPM_P1;HPM_P2
2023/01/27 00:01:26;;;;;;;16.73;10.95;;;;;;;-1.26;100.00;99289.88;4978173;28;20060;-79
2023/01/27 00:03:51;;;;;;;17.13;10.50;;;;;;;-1.35;100.00;99303.94;5020485;28;20430;-79
2023/01/27 00:06:17;;;;;;;15.35;10.38;;;;;;;-1.26;100.00;99302.97;5011792;28;20064;-80
2023/01/27 00:08:42;;;;;;;19.55;11.60;;;;;;;-1.22;100.00;99312.16;4994406;28;20091;-80
2023/01/27 00:13:52;;;;;;;18.05;11.93;;;;;;;-0.80;99.68;99304.94;5010543;28;20700;-80
2023/01/27 00:16:17;;;;;;;18.20;11.00;;;;;;;-1.19;100.00;99303.97;5000991;28;20033;-80
2023/01/27 00:18:42;;;;;;;17.42;11.43;;;;;;;-1.01;100.00;99302.00;5001118;28;20029;-80
2023/01/27 00:26:36;;;;;;;17.38;10.98;;;;;;;-1.03;100.00;99298.75;5024004;28;20084;-80
2023/01/27 00:29:01;;;;;;;19.85;12.93;;;;;;;-1.13;100.00;99300.69;4985925;28;20030;-80
2023/01/27 00:34:11;;;;;;;23.63;13.35;;;;;;;-0.76;100.00;99291.34;5018707;28;20044;-80
2023/01/27 00:36:38;;;;;;;21.77;12.77;;;;;;;-1.20;100.00;99300.50;5007216;28;20565;-80
2023/01/27 00:39:05;;;;;;;24.38;14.20;;;;;;;-1.33;100.00;99289.69;5009059;28;20065;-80
2023/01/27 00:41:32;;;;;;;26.75;14.38;;;;;;;-0.94;100.00;99292.53;5011283;28;20033;-81
2023/01/27 00:43:58;;;;;;;29.13;14.80;;;;;;;-0.85;100.00;99276.63;5003933;28;20026;-81
2023/01/27 00:46:24;;;;;;;24.10;13.25;;;;;;;-1.01;100.00;99297.59;5011109;28;20050;-81
2023/01/27 00:48:50;;;;;;;24.33;12.70;;;;;;;-1.37;100.00;99274.47;5031837;28;20365;-81
2023/01/27 00:51:17;;;;;;;28.98;15.30;;;;;;;-0.80;100.00;99295.28;5010725;28;20037;-80
2023/01/27 00:53:43;;;;;;;27.48;14.27;;;;;;;-1.04;100.00;99299.69;5009585;28;20469;-81
2023/01/27 00:56:08;;;;;;;28.50;14.38;;;;;;;-1.16;100.00;99287.94;5015734;28;20472;-80
2023/01/27 00:58:34;;;;;;;25.17;13.57;;;;;;;-0.82;100.00;99283.31;5007629;28;20033;-80
2023/01/27 01:01:02;;;;;;;15.85;10.20;;;;;;;-0.62;100.00;99287.25;5030896;28;20033;-80
2023/01/27 01:03:31;;;;;;;24.20;14.80;;;;;;;-1.05;100.00;99287.59;5006522;28;20042;-81
2023/01/27 01:05:58;;;;;;;27.38;16.58;;;;;;;-1.19;100.00;99281.22;5031480;28;20040;-80
2023/01/27 01:08:24;;;;;;;29.98;14.55;;;;;;;-0.84;100.00;99280.06;5026316;28;20092;-80
2023/01/27 01:10:49;;;;;;;33.28;16.33;;;;;;;-1.23;100.00;99292.19;5009788;28;20129;-80
2023/01/27 01:13:15;;;;;;;26.95;14.63;;;;;;;-1.21;100.00;99290.22;5029539;28;20116;-80
2023/01/27 01:15:41;;;;;;;24.00;13.90;;;;;;;-0.93;100.00;99286.28;5031737;28;20120;-80
2023/01/27 01:18:08;;;;;;;29.90;16.55;;;;;;;-0.84;100.00;99283.50;5030146;28;20057;-80
2023/01/27 01:20:39;;;;;;;31.83;16.73;;;;;;;-0.90;100.00;99296.44;4990875;28;20473;-81
2023/01/27 01:23:05;;;;;;;36.20;17.50;;;;;;;-1.05;100.00;99300.69;5021705;28;20436;-80
2023/01/27 01:25:31;;;;;;;29.83;16.15;;;;;;;-1.14;100.00;99307.75;5005165;28;20021;-81
2023/01/27 01:27:56;;;;;;;34.63;16.58;;;;;;;-1.17;100.00;99305.44;5010379;28;20025;-80
2023/01/27 01:30:25;;;;;;;31.52;16.52;;;;;;;-1.15;100.00;99307.88;4989685;28;20041;-81
2023/01/27 01:32:50;;;;;;;34.45;17.88;;;;;;;-1.15;100.00;99294.78;5007634;28;20045;-80
2023/01/27 01:35:16;;;;;;;40.63;19.77;;;;;;;-0.97;100.00;99304.13;4988463;28;20030;-80
2023/01/27 01:37:41;;;;;;;34.33;18.00;;;;;;;-1.06;100.00;99312.16;5008696;28;20112;-80
2023/01/27 01:40:08;;;;;;;26.55;14.27;;;;;;;-1.03;100.00;99306.59;4993271;28;20029;-80
2023/01/27 01:42:52;;;;;;;33.13;16.25;;;;;;;-1.02;100.00;99322.13;5006953;28;20060;-80
2023/01/27 01:45:32;;;;;;;26.13;13.90;;;;;;;-0.65;100.00;99311.16;5023812;28;20497;-80
2023/01/27 01:48:02;;;;;;;26.95;14.68;;;;;;;-1.07;100.00;99313.94;5007086;28;20441;-80
2023/01/27 01:50:28;;;;;;;28.73;15.13;;;;;;;-1.05;100.00;99311.19;5005644;28;20026;-80
2023/01/27 01:52:54;;;;;;;25.40;13.95;;;;;;;-0.91;100.00;99300.03;5007118;28;20111;-80
2023/01/27 01:55:22;;;;;;;28.90;13.65;;;;;;;-0.85;100.00;99315.91;5028162;28;20202;-81
2023/01/27 01:57:48;;;;;;;23.13;12.35;;;;;;;-0.38;100.00;99299.47;4991956;28;20037;-80
2023/01/27 02:00:14;;;;;;;25.60;13.95;;;;;;;-0.74;100.00;99309.50;5007673;28;20038;-81
2023/01/27 02:02:40;;;;;;;21.88;11.90;;;;;;;-0.84;100.00;99316.75;5027576;28;20037;-80
2023/01/27 02:05:10;;;;;;;19.42;11.02;;;;;;;-0.86;100.00;99308.22;5008677;28;20026;-80
2023/01/27 02:07:54;;;;;;;19.67;11.10;;;;;;;-0.93;100.00;99308.06;5024093;28;20036;-80
2023/01/27 02:10:19;;;;;;;22.98;11.70;;;;;;;-0.86;100.00;99310.84;5006603;28;20034;-80
2023/01/27 02:12:45;;;;;;;23.15;12.25;;;;;;;-0.43;100.00;99312.25;5018801;28;20053;-80
2023/01/27 02:15:11;;;;;;;23.40;11.50;;;;;;;-0.65;100.00;99308.53;5023143;28;20033;-81
2023/01/27 02:17:37;;;;;;;17.67;11.45;;;;;;;-0.79;99.92;99307.38;5026220;28;20127;-82
2023/01/27 02:20:35;;;;;;;19.10;11.32;;;;;;;-0.41;100.00;99321.59;5025512;28;20430;-81
2023/01/27 02:23:30;;;;;;;16.38;10.00;;;;;;;-0.33;98.53;99305.03;5025802;28;20036;-80
2023/01/27 02:26:01;;;;;;;19.88;11.13;;;;;;;-0.40;99.06;99317.19;5020551;28;20308;-81
2023/01/27 02:28:28;;;;;;;17.48;10.23;;;;;;;-0.26;99.31;99309.44;5024685;28;20037;-80
2023/01/27 02:30:54;;;;;;;17.83;11.13;;;;;;;-0.48;99.33;99320.63;5025466;28;20025;-81
2023/01/27 02:33:19;;;;;;;17.05;8.95;;;;;;;-0.52;100.00;99314.06;4990802;28;20044;-80
2023/01/27 02:36:00;;;;;;;18.60;10.65;;;;;;;-0.78;100.00;99324.75;5009420;28;20029;-80
2023/01/27 02:38:35;;;;;;;16.98;9.70;;;;;;;-0.46;100.00;99318.66;5003566;28;20396;-81
2023/01/27 02:41:19;;;;;;;20.35;11.80;;;;;;;-0.52;99.81;99306.22;5025021;28;20100;-81
2023/01/27 02:43:47;;;;;;;20.55;11.70;;;;;;;-0.88;100.00;99297.09;5022416;28;20033;-80
2023/01/27 02:46:12;;;;;;;23.42;11.93;;;;;;;-0.59;100.00;99313.09;5008353;28;20488;-81
2023/01/27 02:48:38;;;;;;;24.02;12.50;;;;;;;-0.96;100.00;99304.97;5008622;28;20032;-80
2023/01/27 02:51:03;;;;;;;24.38;12.77;;;;;;;-0.96;100.00;99311.00;4995773;28;20032;-80
2023/01/27 02:53:28;;;;;;;22.98;12.38;;;;;;;-0.79;100.00;99323.09;5023750;28;20030;-80
2023/01/27 02:55:54;;;;;;;31.27;12.43;;;;;;;-0.61;100.00;99317.69;5024152;28;20033;-81
2023/01/27 02:58:19;;;;;;;27.05;14.30;;;;;;;-0.52;100.00;99319.31;5003611;28;20392;-81
2023/01/27 03:00:45;;;;;;;29.23;13.20;;;;;;;-1.01;100.00;99325.59;5026821;28;20056;-80
2023/01/27 03:03:10;;;;;;;24.35;12.63;;;;;;;-1.00;100.00;99320.16;5009140;28;20029;-80
2023/01/27 03:05:35;;;;;;;27.77;13.10;;;;;;;-0.33;100.00;99326.03;4974828;28;20102;-80
2023/01/27 03:08:01;;;;;;;24.27;13.27;;;;;;;-0.63;100.00;99311.00;5005806;28;20037;-80
2023/01/27 03:10:26;;;;;;;25.95;12.73;;;;;;;-0.92;100.00;99322.00;5006505;28;20033;-80
2023/01/27 03:12:51;;;;;;;21.92;11.38;;;;;;;-0.96;100.00;99315.44;4977316;28;20045;-80
2023/01/27 03:18:15;;;;;;;22.65;12.93;;;;;;;-0.87;100.00;99327.53;5007899;28;20040;-80
2023/01/27 03:20:48;;;;;;;20.70;11.55;;;;;;;-0.92;100.00;99329.84;5025934;28;20071;-80
2023/01/27 03:23:15;;;;;;;19.50;10.80;;;;;;;-1.00;100.00;99314.09;5007447;28;20125;-80
2023/01/27 03:25:46;;;;;;;21.30;10.70;;;;;;;-0.53;100.00;99322.94;4992873;28;20069;-80
2023/01/27 03:28:12;;;;;;;13.95;9.73;;;;;;;-0.33;100.00;99328.63;5006832;28;20021;-80
2023/01/27 03:30:38;;;;;;;14.43;8.82;;;;;;;-0.71;100.00;99329.34;4991762;28;20111;-80
2023/01/27 03:33:05;;;;;;;17.60;9.02;;;;;;;-0.67;100.00;99331.47;5003892;28;20029;-80
2023/01/27 03:35:37;;;;;;;20.27;10.13;;;;;;;-0.78;100.00;99335.25;5004562;28;21960;-81
2023/01/27 03:46:23;;;;;;;18.55;10.85;;;;;;;-0.64;100.00;99339.00;5015481;28;20050;-80
2023/01/27 03:48:50;;;;;;;15.27;9.48;;;;;;;-0.81;100.00;99343.41;5004303;28;20034;-80
2023/01/27 03:51:16;;;;;;;17.27;9.15;;;;;;;-0.97;100.00;99340.81;5009045;28;20393;-80
2023/01/27 03:53:42;;;;;;;18.98;9.85;;;;;;;-0.65;100.00;99355.69;5020691;28;20032;-80
2023/01/27 03:56:08;;;;;;;18.63;9.95;;;;;;;-0.84;100.00;99345.56;5021365;28;20497;-80
2023/01/27 03:58:35;;;;;;;17.83;10.23;;;;;;;-0.94;100.00;99339.66;5008854;28;20096;-81
2023/01/27 04:01:03;;;;;;;19.05;9.70;;;;;;;-0.88;100.00;99349.50;5006288;28;20440;-81
2023/01/27 04:09:17;;;;;;;19.02;10.15;;;;;;;-0.86;100.00;99352.75;5024021;28;20037;-81
2023/01/27 04:11:54;;;;;;;18.25;10.63;;;;;;;-0.84;100.00;99337.69;5006772;28;20029;-81
2023/01/27 04:14:20;;;;;;;19.15;11.75;;;;;;;-0.77;100.00;99338.69;4995802;28;20037;-81
2023/01/27 04:16:46;;;;;;;20.60;11.13;;;;;;;-0.82;100.00;99351.44;5009722;28;20025;-81
2023/01/27 04:19:12;;;;;;;18.17;10.52;;;;;;;-0.81;100.00;99337.38;5010475;28;20147;-81
2023/01/27 04:21:38;;;;;;;20.50;11.10;;;;;;;-0.65;100.00;99353.06;5001076;28;20038;-80
2023/01/27 04:24:07;;;;;;;20.35;11.57;;;;;;;-0.83;100.00;99334.09;5025746;28;20061;-81
2023/01/27 04:26:34;;;;;;;24.70;11.52;;;;;;;-0.74;100.00;99350.66;5012282;28;20055;-81
2023/01/27 04:29:03;;;;;;;24.23;12.45;;;;;;;-0.39;100.00;99350.25;5029084;28;20021;-80
2023/01/27 04:31:31;;;;;;;22.67;12.15;;;;;;;-0.68;100.00;99350.81;5017970;28;20040;-80
2023/01/27 04:33:56;;;;;;;21.15;11.05;;;;;;;-0.59;100.00;99356.84;5012938;28;20037;-80
2023/01/27 04:36:22;;;;;;;26.23;13.48;;;;;;;-0.77;100.00;99351.78;5009595;28;20570;-80
2023/01/27 04:38:47;;;;;;;24.13;12.38;;;;;;;-0.61;100.00;99351.75;5027408;28;20032;-80
2023/01/27 04:41:12;;;;;;;20.63;11.25;;;;;;;-0.13;100.00;99346.44;5010457;28;20582;-80
2023/01/27 04:43:38;;;;;;;22.73;12.48;;;;;;;-0.51;100.00;99352.44;5004246;28;20036;-80
2023/01/27 04:46:03;;;;;;;24.30;12.57;;;;;;;-0.57;100.00;99355.72;5012580;28;20041;-80
2023/01/27 04:48:29;;;;;;;23.17;12.00;;;;;;;-0.21;100.00;99364.81;4994592;28;20411;-80
2023/01/27 04:50:54;;;;;;;21.80;12.57;;;;;;;-0.49;100.00;99366.19;4997513;28;20037;-80
2023/01/27 04:53:20;;;;;;;25.00;13.73;;;;;;;-0.63;100.00;99358.19;5026015;28;20029;-81
2023/01/27 04:55:48;;;;;;;24.33;14.23;;;;;;;-0.48;100.00;99367.00;5028575;28;20507;-80
2023/01/27 04:58:15;;;;;;;27.40;14.57;;;;;;;-0.42;100.00;99353.22;4999512;28;20044;-80
2023/01/27 05:00:41;;;;;;;22.13;12.23;;;;;;;-0.18;100.00;99345.31;5006724;28;20048;-80
2023/01/27 05:03:09;;;;;;;17.10;10.68;;;;;;;0.39;100.00;99361.69;5008668;28;21719;-80
2023/01/27 05:05:35;;;;;;;27.90;13.88;;;;;;;-0.31;100.00;99363.38;5011268;28;20045;-80
2023/01/27 05:08:05;;;;;;;21.10;12.07;;;;;;;-0.28;100.00;99363.84;5012073;28;20048;-80
2023/01/27 05:10:31;;;;;;;19.77;10.68;;;;;;;0.02;100.00;99370.19;5010110;28;20029;-80
2023/01/27 05:12:57;;;;;;;25.48;12.80;;;;;;;-0.67;100.00;99368.16;5027174;28;20389;-81
2023/01/27 05:15:22;;;;;;;22.52;12.23;;;;;;;-0.57;100.00;99371.44;5032551;28;20122;-81
2023/01/27 05:17:48;;;;;;;19.02;11.00;;;;;;;-0.67;100.00;99390.91;4997719;28;20549;-81
2023/01/27 05:20:13;;;;;;;19.75;12.07;;;;;;;-0.32;100.00;99390.56;5014176;28;20029;-82
2023/01/27 05:22:39;;;;;;;20.38;10.88;;;;;;;-0.45;100.00;99388.47;5011035;28;20041;-81
2023/01/27 05:25:04;;;;;;;21.25;11.70;;;;;;;-0.43;100.00;99365.50;5011411;28;20409;-82
2023/01/27 05:27:30;;;;;;;21.00;10.80;;;;;;;-0.11;100.00;99375.94;5008283;28;20163;-81
2023/01/27 05:29:56;;;;;;;19.45;10.98;;;;;;;-0.12;100.00;99366.44;5029293;28;20458;-81
2023/01/27 05:32:21;;;;;;;19.15;11.15;;;;;;;-0.30;100.00;99391.22;5024777;28;20488;-81
2023/01/27 05:34:46;;;;;;;18.58;9.32;;;;;;;0.04;100.00;99388.38;5026359;28;20346;-82
2023/01/27 05:37:11;;;;;;;17.13;10.07;;;;;;;-0.29;100.00;99393.69;5008250;28;20290;-82
2023/01/27 05:39:37;;;;;;;14.63;8.98;;;;;;;-0.37;100.00;99406.81;5025621;28;20029;-80
2023/01/27 05:42:03;;;;;;;13.13;8.77;;;;;;;-0.46;100.00;99407.78;5024491;28;20033;-81
2023/01/27 05:44:28;;;;;;;18.75;9.18;;;;;;;0.14;100.00;99399.50;5026528;28;20098;-81
2023/01/27 05:46:53;;;;;;;17.60;9.63;;;;;;;-0.36;100.00;99400.59;5006569;28;20067;-82
2023/01/27 05:49:19;;;;;;;15.07;8.68;;;;;;;-0.05;99.37;99395.47;5025075;28;20061;-81
2023/01/27 05:51:44;;;;;;;18.63;9.93;;;;;;;-0.16;100.00;99407.13;5006997;28;20482;-81
2023/01/27 05:54:09;;;;;;;17.05;9.57;;;;;;;0.10;100.00;99403.44;4997979;28;20033;-81
2023/01/27 05:56:35;;;;;;;15.43;9.05;;;;;;;-0.24;100.00;99416.81;4993081;28;20493;-80
2023/01/27 05:59:00;;;;;;;10.90;7.07;;;;;;;-0.37;100.00;99411.25;5023269;28;20470;-81
2023/01/27 06:01:29;;;;;;;18.77;8.00;;;;;;;-0.43;100.00;99406.63;5010704;28;20053;-80
2023/01/27 06:03:55;;;;;;;14.90;7.85;;;;;;;-0.63;100.00;99421.88;5026228;28;20025;-80
2023/01/27 06:06:22;;;;;;;15.43;9.23;;;;;;;-0.17;100.00;99413.34;5004543;28;20062;-81
2023/01/27 06:08:48;;;;;;;14.65;8.10;;;;;;;-0.51;100.00;99402.22;5025728;28;20040;-82
2023/01/27 06:11:15;;;;;;;14.25;8.50;;;;;;;-0.42;100.00;99411.75;5005350;28;20405;-81
2023/01/27 06:13:40;;;;;;;14.50;9.23;;;;;;;-0.35;100.00;99419.78;5008999;28;20029;-82
2023/01/27 06:16:08;;;;;;;12.20;7.95;;;;;;;-0.19;100.00;99410.06;5026078;28;20021;-81
2023/01/27 06:18:35;;;;;;;18.52;8.80;;;;;;;-0.41;100.00;99409.91;5009304;28;20018;-81
2023/01/27 06:21:01;;;;;;;11.63;8.27;;;;;;;-0.16;100.00;99408.91;5021615;28;20079;-81
2023/01/27 06:23:27;;;;;;;13.55;8.27;;;;;;;-0.06;100.00;99420.03;4997636;28;20033;-82
2023/01/27 06:25:54;;;;;;;14.13;9.10;;;;;;;-0.09;100.00;99428.25;4992275;28;20045;-82
2023/01/27 06:28:20;;;;;;;14.18;7.68;;;;;;;-0.17;100.00;99433.50;5012462;28;20053;-82
2023/01/27 06:30:46;;;;;;;19.88;10.52;;;;;;;-0.38;100.00;99428.78;5026835;28;20454;-83
2023/01/27 06:33:12;;;;;;;17.38;10.05;;;;;;;0.05;100.00;99437.22;5008573;28;20087;-82
2023/01/27 06:35:39;;;;;;;14.90;9.48;;;;;;;-0.32;100.00;99435.97;5000970;28;20450;-81
2023/01/27 06:38:07;;;;;;;13.88;9.07;;;;;;;-0.04;100.00;99444.31;5021110;28;20029;-83
2023/01/27 06:40:34;;;;;;;15.32;9.82;;;;;;;-0.68;100.00;99424.19;5008319;28;20481;-82
2023/01/27 06:42:59;;;;;;;11.15;7.35;;;;;;;-0.51;100.00;99436.31;5029139;28;20117;-81
2023/01/27 06:45:25;;;;;;;11.93;7.40;;;;;;;-0.60;100.00;99452.19;5001057;28;20544;-81
2023/01/27 06:47:59;;;;;;;14.30;9.65;;;;;;;-0.19;100.00;99430.22;5016515;28;20032;-80
2023/01/27 06:50:27;;;;;;;15.98;9.27;;;;;;;-0.01;100.00;99436.09;5035678;28;20037;-82
2023/01/27 06:52:58;;;;;;;14.00;7.50;;;;;;;-0.54;100.00;99451.53;5026553;28;20025;-80
2023/01/27 06:55:24;;;;;;;12.82;7.53;;;;;;;-0.56;100.00;99459.56;5034205;28;20036;-80
2023/01/27 06:57:50;;;;;;;15.00;9.65;;;;;;;-0.59;100.00;99459.09;5005653;28;20033;-81
2023/01/27 07:00:16;;;;;;;15.13;8.85;;;;;;;-0.46;100.00;99454.19;4991364;28;20033;-80
2023/01/27 07:02:43;;;;;;;17.45;9.82;;;;;;;-0.55;100.00;99447.28;4995998;28;20030;-81
2023/01/27 07:05:08;;;;;;;14.63;9.48;;;;;;;-0.50;100.00;99455.50;5015695;28;20108;-80
2023/01/27 07:07:34;;;;;;;14.65;9.15;;;;;;;-0.33;100.00;99471.03;5034344;28;20564;-82
2023/01/27 07:09:59;;;;;;;12.77;8.77;;;;;;;0.01;100.00;99468.25;4996062;28;20056;-81
2023/01/27 07:12:24;;;;;;;10.95;6.90;;;;;;;0.05;100.00;99474.78;5015211;28;20025;-80
2023/01/27 07:14:50;;;;;;;13.77;7.78;;;;;;;-0.30;100.00;99468.09;4996327;28;20120;-81
2023/01/27 07:17:15;;;;;;;8.80;6.28;;;;;;;0.14;100.00;99472.97;4997173;28;20421;-80
2023/01/27 07:19:40;;;;;;;9.10;6.43;;;;;;;-0.10;100.00;99471.22;5007059;28;20600;-80
2023/01/27 07:22:06;;;;;;;10.75;7.15;;;;;;;-0.29;100.00;99477.63;4981014;28;20128;-81
2023/01/27 07:24:31;;;;;;;12.93;6.00;;;;;;;-0.16;100.00;99477.94;5032054;28;20025;-80
2023/01/27 07:26:56;;;;;;;11.35;6.85;;;;;;;-0.17;100.00;99481.53;5018136;28;20521;-80
2023/01/27 07:29:22;;;;;;;9.15;6.03;;;;;;;-0.21;100.00;99475.00;4996261;28;20448;-80
2023/01/27 07:31:47;;;;;;;10.93;6.45;;;;;;;-0.25;100.00;99478.94;5012998;28;20397;-80
2023/01/27 07:34:13;;;;;;;10.20;5.60;;;;;;;0.02;100.00;99490.06;5013510;28;20041;-82
2023/01/27 07:36:38;;;;;;;7.07;5.20;;;;;;;-0.45;100.00;99482.03;4994461;28;20033;-80
2023/01/27 07:39:03;;;;;;;7.50;5.65;;;;;;;-0.27;100.00;99480.91;5012079;28;20026;-81
2023/01/27 07:41:29;;;;;;;7.78;5.45;;;;;;;-0.41;100.00;99499.88;5011841;28;20043;-81
2023/01/27 07:43:54;;;;;;;7.28;5.20;;;;;;;0.11;100.00;99495.13;5020146;28;20025;-81
2023/01/27 07:46:19;;;;;;;8.88;5.40;;;;;;;-0.36;100.00;99494.16;5027551;28;20041;-80
2023/01/27 07:48:45;;;;;;;7.25;4.95;;;;;;;0.36;100.00;99496.72;5036371;28;20420;-81
2023/01/27 07:51:12;;;;;;;7.63;5.72;;;;;;;0.07;100.00;99483.31;5017690;28;20037;-81
2023/01/27 07:53:38;;;;;;;6.05;4.57;;;;;;;-0.12;99.71;99479.25;5014192;28;20029;-81
2023/01/27 07:56:04;;;;;;;6.78;4.90;;;;;;;-0.16;100.00;99501.56;5032336;28;20017;-81
2023/01/27 07:58:30;;;;;;;7.15;5.00;;;;;;;-0.29;100.00;99498.59;5016053;28;20029;-81
2023/01/27 08:00:55;;;;;;;8.00;5.20;;;;;;;-0.28;100.00;99499.41;5003103;28;20037;-81
2023/01/27 08:03:26;;;;;;;7.15;5.15;;;;;;;-0.09;100.00;99504.34;4996748;28;20092;-81
2023/01/27 08:05:51;;;;;;;5.93;4.85;;;;;;;-0.14;100.00;99496.97;5026131;28;20025;-80
2023/01/27 08:08:17;;;;;;;7.30;4.93;;;;;;;-0.02;100.00;99511.38;4996771;28;20320;-80
2023/01/27 08:10:47;;;;;;;6.72;4.60;;;;;;;-0.07;100.00;99505.78;4999020;28;20381;-80
2023/01/27 08:13:14;;;;;;;5.20;3.85;;;;;;;-0.17;100.00;99507.78;4994257;28;20029;-81
2023/01/27 08:15:39;;;;;;;6.55;5.03;;;;;;;-0.21;100.00;99511.72;5010770;28;20025;-81
2023/01/27 08:18:05;;;;;;;6.32;5.18;;;;;;;0.38;100.00;99514.94;5000368;28;20398;-81
2023/01/27 08:20:31;;;;;;;5.40;3.97;;;;;;;0.17;99.77;99510.22;5016881;28;20040;-80
2023/01/27 08:22:56;;;;;;;4.15;3.65;;;;;;;0.25;99.53;99499.69;5017977;28;20253;-81
2023/01/27 08:25:22;;;;;;;5.57;3.65;;;;;;;0.34;99.38;99516.25;5023442;28;20527;-80
2023/01/27 08:27:52;;;;;;;6.40;4.07;;;;;;;0.36;99.15;99511.66;5013876;28;20029;-81
2023/01/27 08:30:18;;;;;;;4.82;4.13;;;;;;;0.34;98.85;99511.00;5012059;28;20034;-81
2023/01/27 08:32:44;;;;;;;5.65;3.65;;;;;;;0.36;99.02;99514.28;5031103;28;20040;-80
2023/01/27 08:35:09;;;;;;;5.82;3.88;;;;;;;0.30;99.32;99509.72;5030045;28;20021;-81
2023/01/27 08:37:35;;;;;;;5.28;3.60;;;;;;;0.19;99.76;99510.03;4992749;28;20120;-80
2023/01/27 08:40:00;;;;;;;4.57;3.30;;;;;;;0.40;99.13;99516.41;5009757;28;20116;-81
2023/01/27 08:42:25;;;;;;;8.10;4.05;;;;;;;0.50;98.86;99516.25;5012642;28;20389;-81
2023/01/27 08:44:51;;;;;;;3.50;3.10;;;;;;;0.79;98.68;99513.81;5010337;28;20128;-81
2023/01/27 08:47:16;;;;;;;3.80;3.38;;;;;;;0.42;98.33;99521.47;5019816;28;20091;-80
2023/01/27 08:49:42;;;;;;;7.07;4.18;;;;;;;0.32;98.69;99521.69;4996136;28;20401;-80
2023/01/27 08:52:07;;;;;;;3.65;2.97;;;;;;;0.53;98.58;99523.75;4975748;28;20033;-81
2023/01/27 08:54:32;;;;;;;3.58;3.28;;;;;;;0.58;98.31;99524.09;5020662;28;20025;-80
2023/01/27 08:56:58;;;;;;;5.53;4.18;;;;;;;0.49;99.05;99520.66;4996813;28;20033;-81
2023/01/27 08:59:23;;;;;;;6.28;3.85;;;;;;;0.59;98.12;99528.38;4979202;28;20106;-81
2023/01/27 09:01:49;;;;;;;5.72;3.78;;;;;;;0.68;98.84;99530.78;5014017;28;20116;-82
2023/01/27 09:04:14;;;;;;;9.27;5.88;;;;;;;0.14;99.50;99530.72;4999889;28;20044;-80
2023/01/27 09:06:39;;;;;;;12.15;5.72;;;;;;;0.51;99.29;99547.56;5027912;28;20029;-81
2023/01/27 09:09:07;;;;;;;9.93;5.28;;;;;;;0.37;99.75;99550.84;4991379;28;20022;-81
2023/01/27 09:11:34;;;;;;;7.32;5.30;;;;;;;0.48;99.70;99560.22;5017267;28;20041;-81
2023/01/27 09:13:59;;;;;;;5.78;5.10;;;;;;;0.22;99.77;99551.72;5031059;28;20029;-81
2023/01/27 09:16:25;;;;;;;5.13;4.18;;;;;;;0.42;100.00;99555.63;4987476;28;20086;-81
2023/01/27 09:18:51;;;;;;;5.65;4.18;;;;;;;0.41;99.50;99564.50;5001511;28;20110;-81
2023/01/27 09:21:16;;;;;;;6.85;3.75;;;;;;;0.23;100.00;99562.03;5034339;28;20033;-80
2023/01/27 09:23:41;;;;;;;5.75;3.97;;;;;;;0.57;100.00;99556.56;5026338;28;20024;-80
2023/01/27 09:26:07;;;;;;;4.38;3.13;;;;;;;0.53;99.48;99550.84;5006817;28;20039;-80
2023/01/27 09:28:32;;;;;;;3.42;2.92;;;;;;;0.53;98.91;99547.38;5005304;28;20118;-81
2023/01/27 09:30:58;;;;;;;4.38;3.25;;;;;;;0.43;99.41;99565.16;4976777;28;20044;-81
2023/01/27 09:33:27;;;;;;;4.63;3.58;;;;;;;0.63;99.77;99561.97;5011702;28;20473;-80
2023/01/27 09:36:05;;;;;;;4.28;3.53;;;;;;;0.57;100.00;99559.19;5037674;28;20040;-81
2023/01/27 09:38:35;;;;;;;4.57;3.40;;;;;;;0.58;99.85;99579.22;5020234;28;20041;-81
2023/01/27 09:41:27;;;;;;;4.32;3.17;;;;;;;0.54;99.96;99580.56;5014043;28;20112;-82
2023/01/27 09:43:59;;;;;;;4.15;3.75;;;;;;;0.85;99.91;99583.28;5031397;28;20033;-81
2023/01/27 09:46:56;;;;;;;6.47;3.95;;;;;;;1.03;99.43;99582.06;5035828;28;20057;-81
2023/01/27 09:49:50;;;;;;;3.33;2.92;;;;;;;0.97;98.85;99593.25;5033456;28;20065;-80
2023/01/27 09:52:45;;;;;;;4.57;3.00;;;;;;;0.47;99.54;99576.94;5015207;28;20469;-80
2023/01/27 09:55:48;;;;;;;3.10;2.40;;;;;;;0.66;99.48;99589.72;5030068;28;20032;-80
2023/01/27 09:58:19;;;;;;;3.33;3.03;;;;;;;0.45;100.00;99597.31;5032315;28;20113;-81
2023/01/27 10:01:03;;;;;;;3.20;2.80;;;;;;;0.88;100.00;99593.44;5011895;28;20021;-80
2023/01/27 10:03:31;;;;;;;3.53;3.15;;;;;;;0.62;99.84;99591.03;5033989;28;20025;-80
2023/01/27 10:06:25;;;;;;;3.63;3.20;;;;;;;0.49;100.00;99591.56;5013912;28;20147;-80
2023/01/27 10:09:35;;;;;;;4.40;2.97;;;;;;;0.83;100.00;99593.16;5006989;28;20454;-80
2023/01/27 10:12:22;;;;;;;3.45;2.83;;;;;;;0.91;98.98;99595.75;4988066;28;20037;-81
2023/01/27 10:15:06;;;;;;;3.38;2.63;;;;;;;1.12;98.42;99586.31;5036255;28;20518;-82
2023/01/27 10:17:49;;;;;;;3.55;2.97;;;;;;;0.89;98.87;99589.84;5009499;28;20021;-81
2023/01/27 10:20:27;;;;;;;3.35;2.72;;;;;;;0.96;98.83;99588.19;5013335;28;20028;-80
2023/01/27 10:23:08;;;;;;;2.60;2.25;;;;;;;0.82;99.11;99587.06;5028259;28;20396;-81
2023/01/27 10:25:57;;;;;;;2.63;2.25;;;;;;;0.69;99.76;99584.13;5035022;28;20476;-80
2023/01/27 10:28:28;;;;;;;2.58;2.38;;;;;;;0.70;100.00;99585.75;5011055;28;20029;-80
2023/01/27 10:31:14;;;;;;;3.33;3.03;;;;;;;0.86;99.83;99588.38;5029692;28;20025;-80
2023/01/27 10:33:54;;;;;;;10.88;9.88;;;;;;;1.16;99.58;99582.34;5031801;28;20044;-80
2023/01/27 10:36:33;;;;;;;6.10;5.55;;;;;;;1.19;98.40;99582.03;5035813;28;20033;-80
2023/01/27 10:39:16;;;;;;;6.25;5.75;;;;;;;1.28;98.67;99575.75;5030280;28;20026;-80
2023/01/27 10:41:58;;;;;;;3.03;2.70;;;;;;;1.38;97.63;99589.47;5030920;28;20030;-80
2023/01/27 10:44:32;;;;;;;2.22;2.05;;;;;;;1.29;97.96;99584.44;5030484;28;20025;-80
2023/01/27 10:47:25;;;;;;;2.33;2.13;;;;;;;1.29;97.51;99571.31;5026624;28;20461;-80
2023/01/27 10:49:56;;;;;;;2.17;2.03;;;;;;;1.39;97.07;99593.75;5010288;28;20021;-80
2023/01/27 10:52:25;;;;;;;2.72;2.53;;;;;;;1.02;97.76;99579.63;5013506;28;20041;-80
2023/01/27 10:54:59;;;;;;;1.75;1.65;;;;;;;1.03;97.75;99581.25;5029352;28;20083;-80
2023/01/27 10:57:38;;;;;;;1.88;1.70;;;;;;;1.18;98.32;99585.63;5037862;28;20041;-80
2023/01/27 11:00:14;;;;;;;2.00;1.77;;;;;;;1.10;98.05;99585.66;5031257;28;20025;-80
2023/01/27 11:02:48;;;;;;;1.13;1.13;;;;;;;1.13;98.21;99589.75;5027212;28;20033;-80
2023/01/27 11:05:20;;;;;;;2.03;1.70;;;;;;;1.28;97.91;99577.53;5032138;28;20393;-80
2023/01/27 11:07:53;;;;;;;1.65;1.55;;;;;;;1.36;97.15;99573.06;5011829;28;20040;-80
2023/01/27 11:10:20;;;;;;;0.63;0.63;;;;;;;0.97;96.93;99564.34;5010250;28;20385;-80
2023/01/27 11:12:53;;;;;;;1.15;1.15;;;;;;;1.14;96.90;99546.69;5027877;28;20032;-81
2023/01/27 11:15:34;;;;;;;1.27;1.17;;;;;;;1.40;97.33;99560.38;5030243;28;20167;-80
2023/01/27 11:18:07;;;;;;;9.55;3.95;;;;;;;1.16;97.37;99566.56;5026975;28;20029;-80
2023/01/27 11:20:42;;;;;;;2.95;1.75;;;;;;;1.08;97.03;99571.03;5021253;28;20044;-80
2023/01/27 11:23:18;;;;;;;1.30;0.95;;;;;;;1.02;96.75;99575.19;5030321;28;20039;-80
2023/01/27 11:25:57;;;;;;;1.77;1.20;;;;;;;0.96;97.34;99573.22;5034410;28;20104;-80
2023/01/27 11:28:44;;;;;;;1.17;1.10;;;;;;;1.01;97.18;99584.03;5013317;28;20044;-81
2023/01/27 11:31:46;;;;;;;1.50;1.40;;;;;;;1.08;96.91;99563.16;5025215;28;20044;-80
2023/01/27 11:34:24;;;;;;;5.30;3.17;;;;;;;1.20;97.95;99562.59;5026852;28;20458;-80
2023/01/27 11:36:49;;;;;;;11.30;4.88;;;;;;;1.18;97.33;99564.59;4999393;28;20491;-80
2023/01/27 11:39:16;;;;;;;10.50;4.80;;;;;;;1.49;96.91;99569.88;5004775;28;20029;-80
2023/01/27 11:41:50;;;;;;;23.00;8.30;;;;;;;1.47;96.70;99556.91;5041334;28;20021;-80
2023/01/27 11:44:23;;;;;;;26.25;11.35;;;;;;;1.61;96.38;99562.41;5034008;28;20033;-80
2023/01/27 11:46:50;;;;;;;2.47;1.25;;;;;;;1.27;95.95;99557.47;5028971;28;20076;-80
2023/01/27 11:49:24;;;;;;;2.35;2.13;;;;;;;1.27;96.53;99573.25;4993841;28;20405;-80
2023/01/27 11:51:50;;;;;;;9.90;8.27;;;;;;;1.60;96.39;99558.13;5030104;28;20026;-80
2023/01/27 11:54:24;;;;;;;6.93;3.75;;;;;;;1.33;96.42;99559.44;4994939;28;20388;-80
2023/01/27 11:56:50;;;;;;;8.30;5.20;;;;;;;1.37;96.31;99558.94;5005894;28;20025;-80
2023/01/27 11:59:23;;;;;;;4.18;3.58;;;;;;;1.44;96.22;99565.13;4997044;28;20022;-80